createdAt,value
2022-08-26T00:00:28.373Z,994.89
2022-08-26T00:05:27.246Z,994.93
2022-08-26T00:10:27.209Z,994.91
2022-08-26T00:15:27.158Z,994.94
2022-08-26T00:20:27.117Z,994.89
2022-08-26T00:25:26.996Z,994.88
2022-08-26T00:30:26.997Z,994.84
2022-08-26T00:35:30.125Z,994.79
2022-08-26T00:40:27.220Z,994.76
2022-08-26T00:45:26.868Z,994.73
2022-08-26T00:50:26.714Z,994.76
2022-08-26T00:55:27.535Z,994.80
2022-08-26T01:00:27.597Z,994.77
2022-08-26T01:05:26.572Z,994.78
2022-08-26T01:10:26.496Z,994.82
2022-08-26T01:15:26.347Z,994.80
2022-08-26T01:20:26.320Z,994.80
2022-08-26T01:25:26.203Z,994.81
2022-08-26T01:30:26.195Z,994.79
2022-08-26T01:35:29.189Z,994.78
2022-08-26T01:40:26.059Z,994.85
2022-08-26T01:45:26.063Z,994.83
2022-08-26T01:50:27.685Z,994.83
2022-08-26T01:55:32.836Z,994.81
2022-08-26T02:00:27.218Z,994.81
2022-08-26T02:05:25.656Z,994.84
2022-08-26T02:10:25.730Z,994.82
2022-08-26T02:15:25.547Z,994.80
2022-08-26T02:20:26.532Z,994.80
2022-08-26T02:25:25.448Z,994.73
2022-08-26T02:30:25.358Z,994.72
2022-08-26T02:35:28.413Z,994.71
2022-08-26T02:40:25.388Z,994.67
2022-08-26T02:45:25.244Z,994.68
2022-08-26T02:50:25.128Z,994.74
2022-08-26T02:55:25.120Z,994.68
2022-08-26T03:00:24.967Z,994.66
2022-08-26T03:05:33.039Z,994.66
2022-08-26T03:10:25.979Z,994.66
2022-08-26T03:15:24.784Z,994.66
2022-08-26T03:20:24.655Z,994.65
2022-08-26T03:25:24.654Z,994.64
2022-08-26T03:30:24.521Z,994.62
2022-08-26T03:35:27.532Z,994.56
2022-08-26T03:40:24.488Z,994.53
2022-08-26T03:45:24.389Z,994.52
2022-08-26T03:50:24.466Z,994.47
2022-08-26T03:55:24.299Z,994.44
2022-08-26T04:00:24.139Z,994.47
2022-08-26T04:05:24.289Z,994.51
2022-08-26T04:10:26.444Z,994.49
2022-08-26T04:15:25.789Z,994.49
2022-08-26T04:20:23.916Z,994.59
2022-08-26T04:25:24.155Z,994.57
2022-08-26T04:30:23.726Z,994.58
2022-08-26T04:35:26.837Z,994.54
2022-08-26T04:40:23.638Z,994.59
2022-08-26T04:45:23.655Z,994.56
2022-08-26T04:50:23.560Z,994.58
2022-08-26T04:55:25.196Z,994.56
2022-08-26T05:00:24.406Z,994.59
2022-08-26T05:05:23.307Z,994.53
2022-08-26T05:10:23.284Z,994.51
2022-08-26T05:15:23.121Z,994.53
2022-08-26T05:20:26.174Z,994.46
2022-08-26T05:25:23.023Z,994.48
2022-08-26T05:30:23.067Z,994.54
2022-08-26T05:35:25.936Z,994.47
2022-08-26T05:40:22.960Z,994.50
2022-08-26T05:45:22.764Z,994.45
2022-08-26T05:50:22.887Z,994.44
2022-08-26T05:55:22.695Z,994.46
2022-08-26T06:00:22.761Z,994.42
2022-08-26T06:05:22.524Z,994.39
2022-08-26T06:10:32.067Z,994.38
2022-08-26T06:15:23.454Z,994.36
2022-08-26T06:20:22.431Z,994.39
2022-08-26T06:25:22.363Z,994.30
2022-08-26T06:30:22.183Z,994.27
2022-08-26T06:35:25.306Z,994.28
2022-08-26T06:40:22.318Z,994.29
2022-08-26T06:45:21.969Z,994.25
2022-08-26T06:50:21.986Z,994.31
2022-08-26T06:55:21.979Z,994.22
2022-08-26T07:00:22.846Z,994.22
2022-08-26T07:05:21.736Z,994.21
2022-08-26T07:10:22.475Z,994.22
2022-08-26T07:15:31.345Z,994.28
2022-08-26T07:20:21.576Z,994.22
2022-08-26T07:25:22.292Z,994.30
2022-08-26T07:30:21.662Z,994.33
2022-08-26T07:35:24.388Z,994.26
2022-08-26T07:40:21.506Z,994.23
2022-08-26T07:45:21.248Z,994.25
2022-08-26T07:50:21.190Z,994.30
2022-08-26T07:55:22.259Z,994.33
2022-08-26T08:00:21.004Z,994.33
2022-08-26T08:05:21.554Z,994.23
2022-08-26T08:10:21.043Z,994.26
2022-08-26T08:15:20.909Z,994.19
2022-08-26T08:20:20.890Z,994.22
2022-08-26T08:25:20.776Z,994.21
2022-08-26T08:30:22.701Z,994.11
2022-08-26T08:35:23.861Z,994.05
2022-08-26T08:40:20.642Z,993.99
2022-08-26T08:45:20.449Z,993.89
2022-08-26T08:50:20.885Z,993.87
2022-08-26T08:55:20.513Z,993.77
2022-08-26T09:00:20.480Z,993.75
2022-08-26T09:05:21.260Z,993.66
2022-08-26T09:10:20.473Z,993.60
2022-08-26T09:15:20.071Z,993.54
2022-08-26T09:20:20.196Z,993.50
2022-08-26T09:25:20.747Z,993.53
2022-08-26T09:30:20.009Z,993.52
2022-08-26T09:35:22.825Z,993.51
2022-08-26T09:40:20.387Z,993.41
2022-08-26T09:45:19.840Z,993.45
2022-08-26T09:50:19.833Z,993.38
2022-08-26T09:55:19.531Z,993.31
2022-08-26T10:00:19.517Z,993.28
2022-08-26T10:05:19.466Z,993.24
2022-08-26T10:10:19.391Z,993.09
2022-08-26T10:15:19.354Z,992.97
2022-08-26T10:20:23.379Z,992.88
2022-08-26T10:25:19.220Z,992.81
2022-08-26T10:30:19.199Z,992.77
2022-08-26T10:35:22.504Z,992.70
2022-08-26T10:40:19.088Z,992.45
2022-08-26T10:45:19.164Z,992.34
2022-08-26T10:50:18.906Z,992.32
2022-08-26T10:55:18.884Z,992.23
2022-08-26T11:01:40.765Z,992.16
2022-08-26T11:06:36.972Z,992.06
2022-08-26T11:12:37.645Z,992.02
2022-08-26T11:17:37.252Z,991.98
2022-08-26T11:22:47.542Z,991.94
2022-08-26T11:27:37.861Z,991.87
2022-08-26T11:32:37.318Z,991.83
2022-08-26T11:37:37.014Z,991.66
2022-08-26T11:42:37.693Z,991.66
2022-08-26T11:47:44.570Z,991.61
2022-08-26T11:52:37.171Z,991.65
2022-08-26T11:57:37.273Z,991.71
2022-08-26T12:02:39.732Z,991.68
2022-08-26T12:07:36.555Z,991.63
2022-08-26T12:12:37.586Z,991.52
2022-08-26T12:17:36.509Z,991.47
2022-08-26T12:22:36.496Z,991.45
2022-08-26T12:27:36.400Z,991.49
2022-08-26T12:32:36.287Z,991.46
2022-08-26T12:37:36.247Z,991.33
2022-08-26T12:42:36.279Z,991.25
2022-08-26T12:47:42.956Z,991.22
2022-08-26T12:52:37.234Z,991.05
2022-08-26T12:57:35.994Z,991.03
2022-08-26T13:02:39.110Z,990.96
2022-08-26T13:07:35.808Z,990.94
2022-08-26T13:12:35.956Z,990.96
2022-08-26T13:17:35.642Z,990.85
2022-08-26T13:22:35.662Z,990.89
2022-08-26T13:27:35.549Z,990.84
2022-08-26T13:32:35.489Z,990.90
2022-08-26T13:37:35.711Z,990.84
2022-08-26T13:42:35.456Z,990.79
2022-08-26T13:47:35.419Z,990.72
2022-08-26T13:52:35.351Z,990.68
2022-08-26T13:57:35.151Z,990.61
2022-08-26T14:02:38.193Z,990.69
2022-08-26T14:07:36.951Z,990.75
2022-08-26T14:12:35.059Z,990.90
2022-08-26T14:17:34.973Z,990.90
2022-08-26T14:22:40.413Z,990.78
2022-08-26T14:27:35.788Z,990.79
2022-08-26T14:32:34.739Z,990.78
2022-08-26T14:37:34.679Z,990.83
2022-08-26T14:42:34.520Z,991.12
2022-08-26T14:47:34.680Z,991.52
2022-08-26T14:52:42.569Z,991.72
2022-08-26T14:57:34.324Z,992.23
2022-08-26T15:02:37.666Z,992.46
2022-08-26T15:07:34.220Z,992.67
2022-08-26T15:12:34.220Z,992.84
2022-08-26T15:17:34.176Z,992.86
2022-08-26T15:22:34.748Z,992.45
2022-08-26T15:27:41.857Z,992.26
2022-08-26T15:32:41.376Z,992.23
2022-08-26T15:37:33.928Z,992.32
2022-08-26T15:42:33.760Z,992.60
2022-08-26T15:47:38.107Z,992.62
2022-08-26T15:52:34.654Z,992.63
2022-08-26T15:57:33.534Z,992.58
2022-08-26T16:02:36.528Z,992.54
2022-08-26T16:07:33.453Z,992.48
2022-08-26T16:12:33.441Z,992.42
2022-08-26T16:17:33.336Z,992.41
2022-08-26T16:22:33.375Z,992.40
2022-08-26T16:27:33.237Z,992.37
2022-08-26T16:32:33.233Z,992.26
2022-08-26T16:37:34.577Z,992.23
2022-08-26T16:42:32.982Z,992.18
2022-08-26T16:47:32.982Z,992.19
2022-08-26T16:52:32.861Z,992.18
2022-08-26T16:57:32.774Z,992.19
2022-08-26T17:02:35.776Z,992.15
2022-08-26T17:07:32.662Z,992.23
2022-08-26T17:12:32.622Z,992.17
2022-08-26T17:17:32.656Z,992.10
2022-08-26T17:22:34.627Z,992.19
2022-08-26T17:27:32.389Z,992.21
2022-08-26T17:32:32.514Z,992.27
2022-08-26T17:37:32.243Z,992.25
2022-08-26T17:42:32.282Z,992.23
2022-08-26T17:47:32.249Z,992.21
2022-08-26T17:52:32.117Z,992.31
2022-08-26T17:57:32.027Z,992.27
2022-08-26T18:02:36.109Z,992.29
2022-08-26T18:07:31.899Z,992.36
2022-08-26T18:12:32.925Z,992.38
2022-08-26T18:17:31.822Z,992.40
2022-08-26T18:22:31.769Z,992.43
2022-08-26T18:27:31.600Z,992.40
2022-08-26T18:32:31.588Z,992.33
2022-08-26T18:37:31.820Z,992.34
2022-08-26T18:42:31.422Z,992.31
2022-08-26T18:47:31.462Z,992.28
2022-08-26T18:52:31.274Z,992.17
2022-08-26T18:57:31.428Z,992.12
2022-08-26T19:02:34.410Z,992.20
2022-08-26T19:07:31.043Z,992.24
2022-08-26T19:12:31.002Z,992.24
2022-08-26T19:17:30.972Z,992.22
2022-08-26T19:22:30.899Z,992.38
2022-08-26T19:27:30.741Z,992.47
2022-08-26T19:32:30.745Z,992.57
2022-08-26T19:37:30.657Z,992.69
2022-08-26T19:42:30.589Z,992.87
2022-08-26T19:47:30.483Z,992.91
2022-08-26T19:52:38.272Z,993.08
2022-08-26T19:57:30.396Z,993.16
2022-08-26T20:02:33.401Z,993.18
2022-08-26T20:07:30.341Z,993.23
2022-08-26T20:12:30.215Z,993.20
2022-08-26T20:17:30.090Z,993.18
2022-08-26T20:22:30.354Z,993.24
2022-08-26T20:27:34.704Z,993.16
2022-08-26T20:32:35.067Z,993.13
2022-08-26T20:37:29.907Z,993.07
2022-08-26T20:42:30.024Z,993.05
2022-08-26T20:47:29.694Z,993.07
2022-08-26T20:52:30.076Z,993.01
2022-08-26T20:57:29.534Z,993.12
2022-08-26T21:02:33.330Z,993.18
2022-08-26T21:07:29.451Z,993.19
2022-08-26T21:12:29.450Z,993.23
2022-08-26T21:17:29.299Z,993.28
2022-08-26T21:22:29.268Z,993.19
2022-08-26T21:27:29.191Z,993.18
2022-08-26T21:32:29.131Z,993.18
2022-08-26T21:37:29.026Z,993.09
2022-08-26T21:42:28.994Z,993.14
2022-08-26T21:47:28.890Z,993.12
2022-08-26T21:52:28.956Z,993.14
2022-08-26T21:57:28.808Z,993.10
2022-08-26T22:02:31.803Z,993.02
2022-08-26T22:07:28.659Z,993.03
2022-08-26T22:12:28.679Z,993.08
2022-08-26T22:17:28.621Z,993.00
2022-08-26T22:22:28.705Z,993.01
2022-08-26T22:27:28.391Z,992.97
2022-08-26T22:32:28.348Z,993.00
2022-08-26T22:37:28.376Z,992.99
2022-08-26T22:42:28.318Z,993.04
2022-08-26T22:47:36.079Z,993.11
2022-08-26T22:52:35.519Z,993.14
2022-08-26T22:58:56.630Z,993.15
2022-08-26T23:03:56.397Z,993.14
2022-08-26T23:08:57.129Z,993.11
2022-08-26T23:13:56.337Z,993.20
2022-08-26T23:18:56.286Z,993.12
2022-08-26T23:24:04.041Z,993.03
2022-08-26T23:29:03.523Z,992.99
2022-08-26T23:34:03.848Z,992.95
2022-08-26T23:38:55.949Z,993.02
2022-08-26T23:43:56.009Z,993.07
2022-08-26T23:48:58.909Z,993.07
2022-08-26T23:53:55.753Z,993.05
2022-08-26T23:59:03.456Z,992.98
